Date,TemperatureHighF,TemperatureAvgF,TemperatureLowF,DewpointHighF,DewpointAvgF,DewpointLowF,HumidityHigh,HumidityAvg,HumidityLow,PressureMaxIn,PressureMinIn,WindSpeedMaxMPH,WindSpeedAvgMPH,GustSpeedMaxMPH,PrecipitationSumIn
2013-1-1,30.4,26.3,17.0,27.0,22.3,14.0,92,85,72,30.18,30.05,8,2,0,0.01
2013-1-2,21.4,13.5,4.6,14.0,8.4,2.0,92,80,69,30.28,30.16,7,4,0,0.00
2013-1-3,30.1,22.9,10.7,26.0,17.2,5.0,85,78,66,30.29,30.19,14,8,0,0.00
2013-1-4,28.2,21.9,14.1,23.0,17.4,11.0,88,83,75,30.32,30.23,19,9,0,0.00
2013-1-5,35.5,27.9,17.5,31.0,24.2,15.0,92,86,75,30.32,30.08,16,8,0,0.00
2013-1-6,35.9,31.1,24.5,32.0,27.3,20.0,92,85,83,30.34,29.97,20,9,0,0.00
2013-1-7,34.1,25.6,15.9,28.0,22.2,14.0,94,87,77,30.43,30.19,21,7,0,0.00
2013-1-8,39.3,31.5,23.5,31.0,26.4,20.0,89,81,71,30.27,30.17,12,6,0,0.00
2013-1-9,45.8,41.0,35.3,36.0,33.1,25.0,83,74,63,30.48,30.12,17,9,0,0.00
2013-1-10,39.1,33.9,27.0,37.0,29.5,24.0,95,84,68,30.52,30.04,9,2,0,0.19
2013-1-11,56.6,50.2,38.6,53.0,47.3,37.0,97,90,79,30.04,29.74,18,10,0,0.42
2013-1-12,59.7,53.4,46.7,54.0,49.9,45.0,96,88,78,29.93,29.72,15,7,0,0.34
2013-1-13,50.1,35.3,21.4,49.0,33.6,18.0,97,93,86,30.19,29.72,18,7,13,0.62
2013-1-14,21.9,19.1,15.8,18.0,15.8,12.0,92,87,83,30.46,30.20,13,5,0,0.00
2013-1-15,29.1,22.9,15.9,23.0,18.9,14.0,93,85,74,30.45,30.15,10,2,0,0.00
2013-1-16,35.5,29.1,22.6,28.0,23.7,21.0,93,81,61,30.14,29.93,16,7,0,0.01
2013-1-17,36.6,30.5,21.5,29.0,23.7,16.0,92,77,59,30.40,30.05,15,5,0,0.00
2013-1-18,38.8,29.5,19.6,28.0,21.4,15.0,86,73,58,30.47,30.07,27,13,0,0.00
2013-1-19,49.5,42.3,37.0,37.0,32.1,28.0,78,68,58,30.07,29.79,26,16,0,0.00
2013-1-20,41.8,24.5,19.3,34.0,12.6,8.0,75,61,50,30.25,29.81,35,10,0,0.00
2013-1-21,19.8,13.9,7.5,9.0,2.9,-4.0,83,62,48,30.27,30.13,21,10,0,0.00
2013-1-22,12.7,8.0,3.6,0.0,-2.6,-5.0,78,63,53,30.41,30.27,17,8,0,0.00
2013-1-23,20.7,15.3,9.7,14.0,6.2,0.0,83,67,55,30.38,30.13,15,7,0,0.00
2013-1-24,21.8,17.1,9.5,15.0,8.1,4.0,88,69,49,30.64,30.19,13,4,0,0.00
2013-1-25,26.5,21.7,18.5,22.0,16.2,10.0,90,80,67,30.45,30.04,12,7,0,0.00
2013-1-26,28.2,25.0,21.4,22.0,18.5,16.0,84,76,70,30.45,30.09,9,4,0,0.00
2013-1-27,34.7,27.2,18.7,33.0,22.7,15.0,94,83,75,30.44,30.07,14,5,0,0.23
2013-1-28,49.7,45.6,34.8,49.0,44.7,33.0,98,96,94,30.07,29.92,21,9,0,0.03
2013-1-29,60.4,55.5,47.7,57.0,53.9,47.0,98,94,89,29.93,29.34,30,16,0,0.44
2013-1-30,62.1,45.6,28.1,58.0,43.8,24.0,98,93,83,29.51,29.18,25,11,0,0.57
2013-1-31,27.7,19.4,9.7,24.0,13.8,3.0,89,79,68,30.09,29.52,24,14,0,0.00